Time;durP1;ratioP1;P1;durP2;ratioP2;P2;SDS_P1;SDS_P2;PMS_P1;PMS_P2;Temp;Humidity;BMP_temperature;BMP_pressure;BME280_temperature;BME280_humidity;BME280_pressure;Samples;Min_cycle;Max_cycle;Signal;HPM_P1;HPM_P2
2022/10/27 00:01:27;;;;;;;30.50;19.00;;;;;;;7.43;78.74;100954.70;127143;1289;107379;-85
2022/10/27 00:04:32;;;;;;;31.90;19.50;;;;;;;7.43;78.88;100953.79;127033;1295;107392;-86
2022/10/27 00:07:38;;;;;;;35.30;20.70;;;;;;;7.46;78.90;100959.09;127083;1296;107086;-88
2022/10/27 00:10:44;;;;;;;34.70;21.40;;;;;;;7.49;79.10;100963.45;127115;1296;107511;-85
2022/10/27 00:13:50;;;;;;;37.50;22.10;;;;;;;7.51;79.09;100959.61;127211;1296;107433;-87
2022/10/27 00:16:56;;;;;;;34.00;21.40;;;;;;;7.53;79.00;100961.61;127228;1296;107360;-86
2022/10/27 00:20:02;;;;;;;34.40;21.00;;;;;;;7.54;79.23;100963.98;127221;1299;107089;-87
2022/10/27 00:23:07;;;;;;;32.80;21.40;;;;;;;7.55;79.19;100967.65;127104;1296;107393;-86
2022/10/27 00:26:15;;;;;;;33.10;20.80;;;;;;;7.56;79.39;100964.75;127183;1296;107393;-86
2022/10/27 00:29:20;;;;;;;34.90;19.40;;;;;;;7.54;79.43;100970.50;127138;1289;107127;-86
2022/10/27 00:32:26;;;;;;;28.80;17.20;;;;;;;7.54;79.40;100977.63;127229;1295;107524;-86
2022/10/27 00:35:31;;;;;;;32.00;19.20;;;;;;;7.56;79.45;100981.89;127081;1286;107608;-85
2022/10/27 00:38:37;;;;;;;31.60;19.00;;;;;;;7.61;79.54;100977.80;127048;1299;106425;-88
2022/10/27 00:41:44;;;;;;;33.80;19.60;;;;;;;7.65;79.57;100976.79;127029;1293;107387;-85
2022/10/27 00:44:49;;;;;;;39.00;20.50;;;;;;;7.67;79.54;100979.42;127595;1296;107334;-89
2022/10/27 00:47:55;;;;;;;34.00;19.00;;;;;;;7.68;79.68;100977.64;127464;1295;107390;-88
2022/10/27 00:51:02;;;;;;;29.90;19.10;;;;;;;7.66;79.53;100979.14;127313;1286;107407;-87
2022/10/27 00:54:09;;;;;;;28.80;18.20;;;;;;;7.66;79.52;100980.42;127196;1294;107541;-88
2022/10/27 00:57:15;;;;;;;31.80;18.70;;;;;;;7.63;79.60;100979.39;127221;1294;107272;-86
2022/10/27 01:00:20;;;;;;;27.70;16.00;;;;;;;7.61;79.55;100979.41;127118;1295;107518;-86
2022/10/27 01:03:26;;;;;;;27.80;16.20;;;;;;;7.59;79.67;100982.93;127318;1295;106327;-87
2022/10/27 01:06:33;;;;;;;27.10;17.10;;;;;;;7.60;79.69;100980.54;127100;1296;107404;-86
2022/10/27 01:09:41;;;;;;;28.60;18.10;;;;;;;7.62;79.62;100979.63;127273;1285;107382;-86
2022/10/27 01:12:47;;;;;;;25.30;17.30;;;;;;;7.68;79.66;100984.55;127114;1295;107539;-87
2022/10/27 01:16:04;;;;;;;28.50;18.40;;;;;;;7.69;79.57;100980.55;127099;1288;107330;-85
2022/10/27 01:19:30;;;;;;;29.10;18.20;;;;;;;7.68;79.70;100977.95;126999;1294;107492;-86
2022/10/27 01:22:44;;;;;;;25.80;17.40;;;;;;;7.69;79.55;100972.39;127110;1295;107473;-85
2022/10/27 01:26:27;;;;;;;29.60;18.60;;;;;;;7.67;79.60;100971.54;127285;1294;107257;-85
2022/10/27 01:29:58;;;;;;;26.10;16.20;;;;;;;7.61;79.61;100970.70;127035;1286;107611;-84
2022/10/27 01:33:11;;;;;;;26.40;14.80;;;;;;;7.55;79.66;100963.77;127134;1282;106374;-86
2022/10/27 01:36:24;;;;;;;22.20;14.70;;;;;;;7.52;79.61;100964.70;127214;1279;107437;-86
2022/10/27 01:39:30;;;;;;;;;;;;;;;7.51;79.71;100969.52;127055;1278;107324;-87
2022/10/27 01:42:42;;;;;;;23.20;14.40;;;;;;;7.53;79.82;100965.45;127078;1279;107344;-86
2022/10/27 01:45:48;;;;;;;27.00;15.90;;;;;;;7.55;79.68;100969.05;127101;1296;107514;-86
2022/10/27 01:48:55;;;;;;;25.60;16.70;;;;;;;7.56;79.54;100969.34;127091;1294;107183;-85
2022/10/27 01:52:07;;;;;;;25.40;16.50;;;;;;;7.57;79.61;100970.84;127192;1292;106355;-86
2022/10/27 01:55:18;;;;;;;25.30;16.30;;;;;;;7.55;79.66;100968.66;127086;1286;107282;-87
2022/10/27 01:59:03;;;;;;;29.00;16.00;;;;;;;7.54;79.39;100975.13;127240;1288;105613;-85
2022/10/27 02:02:17;;;;;;;26.30;16.20;;;;;;;7.50;79.43;100974.55;127093;1301;107389;-87
2022/10/27 02:05:34;;;;;;;22.90;15.50;;;;;;;7.45;79.42;100982.66;127102;1294;107568;-87
2022/10/27 02:08:45;;;;;;;22.40;13.70;;;;;;;7.40;79.68;100982.55;127038;1294;107257;-87
2022/10/27 02:11:53;;;;;;;24.40;14.90;;;;;;;7.37;79.62;100981.88;126950;1295;107374;-88
2022/10/27 02:15:02;;;;;;;27.90;15.80;;;;;;;7.39;79.89;100983.00;127216;1296;107149;-89
2022/10/27 02:18:11;;;;;;;23.90;15.60;;;;;;;7.41;79.62;100982.12;127197;1282;107392;-88
2022/10/27 02:21:18;;;;;;;25.00;16.00;;;;;;;7.42;79.89;100983.10;127158;1295;107319;-85
2022/10/27 02:24:24;;;;;;;28.20;16.30;;;;;;;7.42;79.76;100990.15;127146;1293;107145;-87
2022/10/27 02:27:36;;;;;;;25.80;16.30;;;;;;;7.39;79.77;100994.48;127143;1286;107095;-86
2022/10/27 02:30:45;;;;;;;24.00;15.90;;;;;;;7.35;79.75;100992.49;127055;1296;107198;-87
2022/10/27 02:33:51;;;;;;;26.80;15.70;;;;;;;7.32;79.68;100988.69;127181;1286;107389;-85
2022/10/27 02:36:57;;;;;;;24.90;15.50;;;;;;;7.27;79.64;100984.58;127162;1286;105514;-87
2022/10/27 02:40:03;;;;;;;25.00;15.90;;;;;;;7.21;79.64;100981.86;127476;1286;107394;-87
2022/10/27 02:43:08;;;;;;;22.80;13.80;;;;;;;7.14;79.78;100984.16;127122;1296;107458;-86
2022/10/27 02:46:14;;;;;;;19.60;12.90;;;;;;;7.08;79.80;100985.56;127192;1291;107281;-85
2022/10/27 02:49:19;;;;;;;21.20;14.20;;;;;;;7.06;79.94;100987.50;127178;1279;107503;-82
2022/10/27 02:52:24;;;;;;;21.70;13.80;;;;;;;7.05;79.69;100993.77;127029;1280;107563;-83
2022/10/27 02:55:30;;;;;;;22.60;14.40;;;;;;;7.06;79.62;100994.42;127106;1286;107505;-77
2022/10/27 02:58:35;;;;;;;20.90;14.40;;;;;;;7.05;79.62;100991.14;127112;1295;107365;-79
2022/10/27 03:01:40;;;;;;;21.50;13.80;;;;;;;7.04;79.80;100991.40;127306;1279;107543;-80
2022/10/27 03:04:46;;;;;;;21.60;15.40;;;;;;;7.02;79.79;100992.20;127052;1279;107362;-81
2022/10/27 03:07:51;;;;;;;22.30;14.90;;;;;;;6.97;79.75;100991.70;127184;1288;107452;-80
2022/10/27 03:10:56;;;;;;;22.10;14.60;;;;;;;6.94;79.63;100994.26;127123;1279;107239;-80
2022/10/27 03:14:02;;;;;;;21.10;14.20;;;;;;;6.89;79.91;100995.32;127031;1286;107387;-79
2022/10/27 03:17:07;;;;;;;21.10;12.90;;;;;;;6.83;79.50;100991.48;126999;1285;106630;-78
2022/10/27 03:20:14;;;;;;;18.40;12.20;;;;;;;6.79;79.71;100990.40;126948;1280;107548;-78
2022/10/27 03:23:20;;;;;;;20.30;13.20;;;;;;;6.76;79.67;100991.64;126992;1286;108201;-78
2022/10/27 03:26:25;;;;;;;19.60;13.60;;;;;;;6.77;79.98;100989.98;127129;1286;107588;-80
2022/10/27 03:29:30;;;;;;;22.20;13.70;;;;;;;6.78;79.86;100998.90;127266;1295;107528;-81
2022/10/27 03:32:36;;;;;;;22.60;14.50;;;;;;;6.78;79.84;101001.61;127039;1293;107362;-80
2022/10/27 03:35:41;;;;;;;20.00;13.60;;;;;;;6.74;79.74;101000.63;127783;1293;107416;-79
2022/10/27 03:38:46;;;;;;;20.00;13.50;;;;;;;6.73;79.52;101004.10;127280;1279;107282;-81
2022/10/27 03:41:52;;;;;;;20.90;13.60;;;;;;;6.70;79.42;101006.40;127228;1288;106269;-82
2022/10/27 03:44:57;;;;;;;21.70;14.10;;;;;;;6.68;79.62;101013.97;127026;1287;107368;-81
2022/10/27 03:48:04;;;;;;;20.00;14.40;;;;;;;6.61;79.66;101015.52;127114;1278;107471;-82
2022/10/27 03:51:10;;;;;;;18.30;11.90;;;;;;;6.54;79.51;101012.11;126968;1279;105741;-80
2022/10/27 03:54:16;;;;;;;19.90;12.30;;;;;;;6.52;79.65;101009.78;127043;1279;107665;-80
2022/10/27 03:57:21;;;;;;;21.70;13.40;;;;;;;6.54;79.88;101015.14;127048;1294;107163;-80
2022/10/27 04:00:30;;;;;;;20.10;13.70;;;;;;;6.56;79.76;101011.66;126823;1286;107337;-80
2022/10/27 04:03:35;;;;;;;21.30;13.60;;;;;;;6.56;79.92;101007.57;126956;1278;107408;-80
2022/10/27 04:06:41;;;;;;;20.90;13.20;;;;;;;6.56;79.57;101008.81;127001;1279;107106;-80
2022/10/27 04:09:46;;;;;;;20.50;13.20;;;;;;;6.53;79.72;101011.65;127013;1295;107551;-80
2022/10/27 04:12:53;;;;;;;20.60;13.40;;;;;;;6.50;79.85;101012.40;127204;1286;105341;-80
2022/10/27 04:16:00;;;;;;;20.20;12.50;;;;;;;6.47;79.67;101013.31;127181;1278;107577;-80
2022/10/27 04:19:06;;;;;;;20.20;13.60;;;;;;;6.45;79.80;101019.45;127140;1272;107479;-81
2022/10/27 04:22:11;;;;;;;18.50;11.00;;;;;;;6.43;79.68;101019.47;127092;1286;106394;-80
2022/10/27 04:25:17;;;;;;;15.40;11.30;;;;;;;6.39;79.96;101016.33;127127;1279;107236;-81
2022/10/27 04:28:22;;;;;;;19.00;12.50;;;;;;;6.40;79.58;101026.35;126986;1279;107478;-80
2022/10/27 04:31:27;;;;;;;18.60;12.00;;;;;;;6.41;79.86;101030.53;126991;1286;107489;-80
2022/10/27 04:34:33;;;;;;;17.60;12.10;;;;;;;6.42;79.60;101033.28;126914;1278;107229;-80
2022/10/27 04:37:38;;;;;;;19.70;13.30;;;;;;;6.44;79.63;101026.98;127066;1286;107504;-80
2022/10/27 04:40:44;;;;;;;21.90;13.90;;;;;;;6.43;79.90;101025.77;127111;1279;107438;-81
2022/10/27 04:43:51;;;;;;;21.80;14.30;;;;;;;6.43;79.89;101025.80;127059;1279;107648;-81
2022/10/27 04:46:57;;;;;;;20.40;13.90;;;;;;;6.43;79.99;101027.42;126823;1289;107531;-77
2022/10/27 04:50:02;;;;;;;19.90;13.00;;;;;;;6.41;79.91;101028.41;127029;1278;107504;-76
2022/10/27 04:53:08;;;;;;;18.60;13.00;;;;;;;6.39;79.89;101031.59;127162;1279;106975;-76
2022/10/27 04:56:13;;;;;;;18.40;11.90;;;;;;;6.35;80.12;101035.39;127193;1278;107561;-76
2022/10/27 04:59:19;;;;;;;20.00;11.10;;;;;;;6.32;79.86;101034.00;127153;1271;107572;-77
2022/10/27 05:02:24;;;;;;;16.20;11.20;;;;;;;6.32;79.83;101041.95;127224;1278;107665;-76
2022/10/27 05:05:30;;;;;;;18.90;12.40;;;;;;;6.32;79.95;101043.90;127139;1278;107510;-77
2022/10/27 05:08:35;;;;;;;18.60;11.80;;;;;;;6.35;80.02;101045.44;126846;1278;107667;-74
2022/10/27 05:11:40;;;;;;;19.40;12.80;;;;;;;6.36;79.81;101046.46;126822;1278;107192;-78
2022/10/27 05:14:46;;;;;;;17.00;12.20;;;;;;;6.35;79.87;101052.72;127092;1286;107636;-74
2022/10/27 05:17:52;;;;;;;17.70;11.90;;;;;;;6.34;79.79;101059.81;127189;1273;107363;-77
2022/10/27 05:20:57;;;;;;;17.70;12.30;;;;;;;6.33;79.95;101062.36;126949;1278;108765;-74
2022/10/27 05:24:03;;;;;;;17.30;12.00;;;;;;;6.31;79.78;101065.52;127197;1287;108103;-76
2022/10/27 05:27:08;;;;;;;17.50;12.80;;;;;;;6.30;79.87;101060.98;127205;1271;107599;-75
2022/10/27 05:30:14;;;;;;;19.00;12.20;;;;;;;6.27;80.13;101062.44;127049;1279;106552;-76
2022/10/27 05:33:20;;;;;;;14.80;10.90;;;;;;;6.26;80.29;101064.59;126942;1280;107545;-76
2022/10/27 05:36:25;;;;;;;16.20;11.40;;;;;;;6.29;80.06;101069.68;127113;1279;107223;-75
2022/10/27 05:39:31;;;;;;;16.50;11.60;;;;;;;6.33;80.17;101071.55;127092;1279;105365;-74
2022/10/27 05:42:36;;;;;;;18.00;12.30;;;;;;;6.39;80.42;101077.83;127151;1279;107420;-75
2022/10/27 05:45:41;;;;;;;19.30;13.30;;;;;;;6.44;80.41;101082.46;127125;1278;107337;-76
2022/10/27 05:48:47;;;;;;;19.90;13.60;;;;;;;6.47;80.35;101090.19;126972;1272;107278;-74
2022/10/27 05:51:52;;;;;;;20.10;13.10;;;;;;;6.49;80.19;101088.14;126976;1275;107531;-76
2022/10/27 05:54:58;;;;;;;17.10;12.30;;;;;;;6.52;80.56;101094.30;127125;1279;107507;-75
2022/10/27 05:58:05;;;;;;;18.90;13.30;;;;;;;6.52;80.40;101089.33;127048;1295;107504;-74
2022/10/27 06:01:11;;;;;;;19.60;12.80;;;;;;;6.55;80.76;101090.73;126925;1278;107268;-75
2022/10/27 06:04:16;;;;;;;20.00;12.80;;;;;;;6.58;81.19;101089.79;127086;1271;107182;-75
2022/10/27 06:07:21;;;;;;;21.60;14.30;;;;;;;6.64;81.61;101093.27;127152;1279;107483;-76
2022/10/27 06:10:28;;;;;;;40.50;24.00;;;;;;;6.72;82.18;101096.61;127102;1271;107462;-76
2022/10/27 06:13:33;;;;;;;114.30;60.10;;;;;;;6.84;82.64;101100.04;126892;1278;107598;-76
2022/10/27 06:16:39;;;;;;;59.40;34.30;;;;;;;6.95;82.87;101103.82;127031;1286;107512;-75
2022/10/27 06:19:44;;;;;;;32.90;20.80;;;;;;;7.05;82.97;101109.12;127037;1278;107238;-75
2022/10/27 06:22:50;;;;;;;23.10;15.20;;;;;;;7.16;83.35;101113.34;127145;1279;107283;-76
2022/10/27 06:25:57;;;;;;;23.00;16.10;;;;;;;7.28;83.33;101111.23;127130;1278;107264;-74
2022/10/27 06:29:02;;;;;;;23.10;16.90;;;;;;;7.40;83.41;101111.06;126846;1278;107523;-74
2022/10/27 06:32:08;;;;;;;22.80;16.70;;;;;;;7.50;83.37;101115.47;127134;1286;107421;-77
2022/10/27 06:35:14;;;;;;;22.80;16.30;;;;;;;7.59;83.72;101116.23;127239;1279;107488;-76
2022/10/27 06:38:19;;;;;;;25.80;18.90;;;;;;;7.68;83.72;101115.54;127063;1279;107543;-77
2022/10/27 06:41:25;;;;;;;26.60;15.90;;;;;;;7.78;84.14;101121.56;127000;1286;107508;-76
2022/10/27 06:44:31;;;;;;;23.80;14.80;;;;;;;7.86;84.06;101121.00;126902;1286;107471;-74
2022/10/27 06:47:36;;;;;;;23.10;16.50;;;;;;;7.95;84.27;101123.71;126834;1272;107275;-74
2022/10/27 06:50:41;;;;;;;26.10;17.90;;;;;;;8.07;84.41;101123.45;126853;1279;107289;-74
2022/10/27 06:53:46;;;;;;;26.90;17.80;;;;;;;8.21;84.76;101124.91;126918;1272;107538;-72
2022/10/27 06:56:52;;;;;;;23.40;16.90;;;;;;;8.33;85.03;101125.05;126934;1278;107274;-76
2022/10/27 06:59:57;;;;;;;21.90;15.20;;;;;;;8.43;85.08;101127.15;126853;1279;107560;-74
2022/10/27 07:03:08;;;;;;;21.80;14.80;;;;;;;8.54;85.25;101128.80;126873;1286;107530;-74
2022/10/27 07:06:14;;;;;;;23.70;17.00;;;;;;;8.68;85.36;101133.58;126921;1278;108668;-73
2022/10/27 07:09:19;;;;;;;22.50;17.60;;;;;;;8.85;85.74;101134.17;126968;1286;107520;-75
2022/10/27 07:12:25;;;;;;;22.90;17.00;;;;;;;9.03;85.82;101134.05;126865;1279;107612;-74
2022/10/27 07:15:32;;;;;;;24.30;18.50;;;;;;;9.25;86.10;101134.81;126872;1279;107383;-75
2022/10/27 07:18:38;;;;;;;25.70;17.30;;;;;;;9.47;85.93;101134.27;126938;1278;107480;-75
2022/10/27 07:21:44;;;;;;;22.20;15.50;;;;;;;9.68;86.12;101143.55;126924;1286;107515;-75
2022/10/27 07:24:49;;;;;;;23.50;17.80;;;;;;;9.87;86.24;101149.45;126985;1279;106369;-74
2022/10/27 07:27:54;;;;;;;24.40;17.20;;;;;;;10.06;86.36;101151.06;126899;1278;107504;-75
2022/10/27 07:31:00;;;;;;;28.00;20.70;;;;;;;10.25;86.69;101149.54;126941;1279;107576;-77
2022/10/27 07:34:05;;;;;;;26.20;18.50;;;;;;;10.42;86.49;101153.45;126956;1279;107483;-76
2022/10/27 07:37:10;;;;;;;21.70;15.10;;;;;;;10.54;86.49;101164.70;126941;1293;105637;-75
2022/10/27 07:40:18;;;;;;;20.40;14.50;;;;;;;10.63;86.24;101169.11;126893;1286;107545;-74
2022/10/27 07:43:23;;;;;;;37.30;25.90;;;;;;;10.70;86.37;101169.58;126909;1286;107284;-75
2022/10/27 07:46:30;;;;;;;38.10;28.20;;;;;;;10.78;86.57;101167.52;126841;1279;108021;-75
2022/10/27 07:49:35;;;;;;;33.20;24.10;;;;;;;10.82;86.76;101168.48;126934;1271;107678;-75
2022/10/27 07:52:45;;;;;;;28.80;21.90;;;;;;;10.84;86.36;101171.20;126917;1279;107499;-75
2022/10/27 07:55:51;;;;;;;32.90;24.00;;;;;;;10.82;86.46;101169.09;126910;1279;107512;-76
2022/10/27 07:58:57;;;;;;;25.90;17.40;;;;;;;10.79;86.44;101174.70;126884;1278;107246;-75
2022/10/27 08:02:02;;;;;;;22.60;17.30;;;;;;;10.77;86.59;101179.63;126931;1278;107472;-74
2022/10/27 08:05:08;;;;;;;21.90;16.90;;;;;;;10.78;86.81;101182.23;126904;1286;107497;-75
2022/10/27 08:08:15;;;;;;;29.20;21.20;;;;;;;10.84;86.86;101182.83;126870;1282;106624;-75
2022/10/27 08:11:21;;;;;;;60.70;42.40;;;;;;;10.89;86.95;101183.45;126913;1286;107340;-76
2022/10/27 08:14:27;;;;;;;37.70;26.80;;;;;;;10.94;86.88;101180.02;126984;1270;107518;-75
2022/10/27 08:17:32;;;;;;;26.70;18.00;;;;;;;10.95;86.88;101179.36;126931;1278;107462;-75
2022/10/27 08:20:39;;;;;;;22.20;16.20;;;;;;;10.98;86.97;101184.23;126915;1286;107501;-74
2022/10/27 08:23:45;;;;;;;25.10;17.50;;;;;;;11.05;87.22;101185.95;126953;1279;107321;-75
2022/10/27 08:26:50;;;;;;;25.40;17.50;;;;;;;11.14;87.26;101186.77;126871;1280;106252;-72
2022/10/27 08:29:55;;;;;;;26.80;19.00;;;;;;;11.24;87.08;101185.39;127051;1279;107325;-76
2022/10/27 08:33:03;;;;;;;33.20;22.60;;;;;;;11.31;87.44;101189.61;127240;1279;107487;-76
2022/10/27 08:36:10;;;;;;;65.10;36.70;;;;;;;11.36;87.09;101187.35;127058;1286;107607;-73
2022/10/27 08:39:15;;;;;;;55.90;31.70;;;;;;;11.43;87.48;101190.89;127004;1279;107298;-75
2022/10/27 08:42:35;;;;;;;126.50;70.80;;;;;;;11.51;87.80;101192.27;126940;1278;107541;-74
2022/10/27 08:45:50;;;;;;;50.90;31.50;;;;;;;11.65;87.73;101189.28;126834;1271;107343;-74
2022/10/27 08:49:01;;;;;;;51.20;36.00;;;;;;;11.76;87.37;101191.14;126909;1279;107575;-74
2022/10/27 08:52:15;;;;;;;34.90;24.80;;;;;;;11.83;87.65;101190.27;126869;1279;106780;-74
2022/10/27 08:55:27;;;;;;;31.10;22.20;;;;;;;11.92;87.78;101190.45;126863;1272;107176;-74
2022/10/27 08:58:37;;;;;;;26.90;17.80;;;;;;;12.01;87.75;101192.83;126828;1279;108566;-74
2022/10/27 09:01:51;;;;;;;26.50;18.20;;;;;;;12.11;87.79;101189.21;126939;1279;106525;-76
2022/10/27 09:05:12;;;;;;;27.90;22.40;;;;;;;12.22;87.89;101187.33;126898;1279;107365;-71
2022/10/27 09:08:26;;;;;;;28.80;21.40;;;;;;;12.35;87.81;101187.98;126923;1285;108016;-72
2022/10/27 09:11:45;;;;;;;28.90;22.70;;;;;;;12.45;87.80;101188.45;126919;1279;108059;-73
2022/10/27 09:15:15;;;;;;;38.00;25.20;;;;;;;12.52;87.72;101190.10;126933;1278;108484;-72
2022/10/27 09:18:28;;;;;;;22.50;16.90;;;;;;;12.59;87.99;101184.80;126993;1285;107216;-75
2022/10/27 09:21:36;;;;;;;27.80;16.70;;;;;;;12.68;87.94;101184.50;126882;1279;107605;-76
2022/10/27 09:24:42;;;;;;;22.80;17.40;;;;;;;12.79;87.83;101181.34;126925;1278;105596;-75
2022/10/27 09:27:51;;;;;;;23.80;17.30;;;;;;;12.90;87.99;101185.49;126864;1279;107383;-75
2022/10/27 09:30:57;;;;;;;23.00;17.10;;;;;;;12.97;87.65;101187.36;126922;1279;107260;-74
2022/10/27 09:34:11;;;;;;;19.90;14.70;;;;;;;13.00;87.56;101187.21;126897;1295;107501;-75
2022/10/27 09:37:19;;;;;;;21.50;15.50;;;;;;;13.04;87.62;101193.98;126928;1279;107340;-75
2022/10/27 09:40:26;;;;;;;22.20;16.10;;;;;;;13.12;87.60;101194.30;126916;1288;107244;-75
2022/10/27 09:43:31;;;;;;;19.90;15.90;;;;;;;13.24;87.99;101198.15;126826;1271;107289;-75
2022/10/27 09:46:37;;;;;;;23.00;16.10;;;;;;;13.34;87.67;101201.16;126886;1279;107514;-74
2022/10/27 09:49:47;;;;;;;23.40;17.90;;;;;;;13.42;87.76;101201.48;126894;1279;107601;-74
2022/10/27 09:52:53;;;;;;;24.10;17.30;;;;;;;13.49;87.70;101200.06;126962;1293;107502;-74
2022/10/27 09:55:59;;;;;;;19.40;14.60;;;;;;;13.56;88.13;101202.97;126907;1279;106526;-73
2022/10/27 09:59:05;;;;;;;20.30;13.70;;;;;;;13.65;87.67;101198.48;126900;1286;107437;-75
2022/10/27 10:02:25;;;;;;;23.60;16.80;;;;;;;13.73;87.94;101198.04;127031;1279;107471;-74
2022/10/27 10:05:33;;;;;;;17.80;13.00;;;;;;;13.86;87.75;101195.60;126904;1294;106453;-73
2022/10/27 10:08:39;;;;;;;19.40;13.80;;;;;;;13.94;87.50;101202.65;127046;1279;107530;-75
2022/10/27 10:11:44;;;;;;;16.70;12.60;;;;;;;14.03;87.63;101207.29;126933;1272;107598;-74
2022/10/27 10:14:50;;;;;;;19.00;13.10;;;;;;;14.07;87.30;101201.35;126896;1272;107281;-73
2022/10/27 10:17:58;;;;;;;25.80;14.20;;;;;;;14.13;87.51;101204.38;126923;1279;106116;-74
2022/10/27 10:21:07;;;;;;;16.20;12.00;;;;;;;14.24;87.52;101203.14;126920;1279;107542;-75
2022/10/27 10:24:18;;;;;;;16.10;12.40;;;;;;;14.29;87.32;101202.35;126935;1286;107628;-74
2022/10/27 10:27:30;;;;;;;20.00;13.00;;;;;;;14.40;87.44;101203.25;126871;1272;107606;-77
2022/10/27 10:30:35;;;;;;;;;;;;;;;14.48;87.21;101200.33;126938;1279;108400;-77
2022/10/27 10:33:45;;;;;;;17.50;13.40;;;;;;;14.52;87.05;101198.05;126916;1272;107448;-76
2022/10/27 10:36:50;;;;;;;22.00;16.00;;;;;;;14.53;86.97;101194.77;127129;1272;107505;-74
2022/10/27 10:40:09;;;;;;;18.10;12.00;;;;;;;14.60;87.15;101189.88;126809;1295;139487;-77
2022/10/27 10:43:17;;;;;;;15.00;11.50;;;;;;;14.67;87.09;101187.69;126667;1289;107516;-73
2022/10/27 10:46:25;;;;;;;14.00;11.50;;;;;;;14.75;86.96;101187.98;126827;1279;107530;-75
2022/10/27 10:49:34;;;;;;;15.90;11.80;;;;;;;14.81;86.75;101182.65;127132;1278;108266;-74
2022/10/27 10:52:45;;;;;;;16.50;12.30;;;;;;;14.84;86.68;101181.98;127114;1272;107407;-75
2022/10/27 10:55:51;;;;;;;20.80;12.60;;;;;;;14.86;86.51;101183.71;127181;1279;107976;-73
2022/10/27 10:59:07;;;;;;;21.50;15.30;;;;;;;14.88;86.70;101182.98;127064;1279;106791;-74
2022/10/27 11:02:22;;;;;;;13.60;10.50;;;;;;;14.93;86.83;101181.41;126836;1285;108247;-73
2022/10/27 11:05:31;;;;;;;16.40;11.10;;;;;;;15.01;86.52;101177.21;127084;1285;106969;-74
2022/10/27 11:08:43;;;;;;;14.10;11.10;;;;;;;15.09;86.32;101175.99;126950;1279;108489;-73
2022/10/27 11:11:50;;;;;;;15.00;11.40;;;;;;;15.17;86.21;101180.90;126846;1279;107412;-74
2022/10/27 11:14:58;;;;;;;15.00;11.00;;;;;;;15.22;86.32;101180.56;126880;1286;107559;-74
2022/10/27 11:18:12;;;;;;;14.30;10.60;;;;;;;15.27;86.37;101185.95;126918;1279;106589;-74
2022/10/27 11:21:36;;;;;;;14.60;9.70;;;;;;;15.33;86.40;101187.83;126906;1279;107535;-74
2022/10/27 11:24:47;;;;;;;10.50;8.70;;;;;;;15.39;86.07;101187.41;126863;1279;107608;-73
2022/10/27 11:28:03;;;;;;;12.40;8.70;;;;;;;15.45;86.11;101180.11;126923;1284;106612;-73
2022/10/27 11:31:17;;;;;;;13.20;8.50;;;;;;;15.54;86.02;101181.36;126864;1284;107447;-75
2022/10/27 11:34:36;;;;;;;12.20;8.60;;;;;;;15.63;85.92;101179.61;126961;1279;107517;-73
2022/10/27 11:37:48;;;;;;;12.90;8.80;;;;;;;15.69;86.00;101175.38;126909;1278;107517;-74
2022/10/27 11:40:58;;;;;;;13.90;9.40;;;;;;;15.74;85.82;101172.09;127144;1279;105816;-75
2022/10/27 11:44:11;;;;;;;11.20;7.80;;;;;;;15.76;85.64;101174.39;127117;1279;107376;-74
2022/10/27 11:47:22;;;;;;;10.10;7.00;;;;;;;15.81;85.56;101175.61;126976;1286;106792;-73
2022/10/27 11:50:31;;;;;;;9.50;7.00;;;;;;;15.83;85.54;101172.17;126905;1278;107280;-74
2022/10/27 11:53:37;;;;;;;10.30;7.10;;;;;;;15.89;85.62;101174.58;126882;1279;107414;-74
2022/10/27 11:56:57;;;;;;;13.50;8.00;;;;;;;15.98;85.39;101175.17;126972;1278;107598;-74
2022/10/27 12:00:14;;;;;;;10.70;7.50;;;;;;;16.08;84.67;101171.28;126875;1285;107643;-74
2022/10/27 12:03:46;;;;;;;9.00;6.30;;;;;;;16.12;84.94;101169.55;126940;1286;107640;-73
2022/10/27 12:06:53;;;;;;;;;;;;;;;16.10;84.63;101165.63;126894;1279;107338;-74
2022/10/27 12:10:16;;;;;;;8.20;6.10;;;;;;;16.13;84.37;101166.27;126808;1286;108007;-75
2022/10/27 12:13:27;;;;;;;9.90;6.10;;;;;;;16.18;84.41;101167.30;126951;1284;107370;-72
2022/10/27 12:16:40;;;;;;;8.70;6.10;;;;;;;16.26;83.14;101166.31;126836;1286;107523;-74
2022/10/27 12:19:47;;;;;;;10.90;6.30;;;;;;;16.36;83.24;101169.85;127603;1285;107312;-74
2022/10/27 12:22:58;;;;;;;10.40;6.90;;;;;;;16.44;82.42;101168.27;127378;1286;107407;-74
2022/10/27 12:26:11;;;;;;;8.60;6.10;;;;;;;16.51;82.92;101171.82;127121;1278;107420;-74
2022/10/27 12:29:19;;;;;;;9.70;6.20;;;;;;;16.56;83.30;101172.50;127312;1280;107428;-73
2022/10/27 12:32:31;;;;;;;10.20;6.20;;;;;;;16.56;83.13;101174.96;127283;1271;107644;-74
2022/10/27 12:35:47;;;;;;;10.40;6.50;;;;;;;16.57;82.29;101172.63;127200;1276;107351;-76
2022/10/27 12:38:59;;;;;;;11.40;5.60;;;;;;;16.62;81.49;101172.77;127263;1275;107386;-82
2022/10/27 12:42:15;;;;;;;10.20;6.70;;;;;;;16.67;81.88;101167.16;126930;1285;107446;-74
2022/10/27 12:45:40;;;;;;;7.70;5.90;;;;;;;16.70;82.24;101168.75;127010;1286;108049;-75
2022/10/27 12:48:57;;;;;;;9.10;6.40;;;;;;;16.72;81.28;101169.14;126900;1286;107400;-74
2022/10/27 12:52:11;;;;;;;7.30;5.60;;;;;;;16.73;80.61;101168.52;126934;1286;107437;-73
2022/10/27 12:55:33;;;;;;;7.20;5.30;;;;;;;16.71;81.81;101165.24;127091;1279;107270;-74
2022/10/27 12:58:49;;;;;;;7.30;5.50;;;;;;;16.70;81.88;101168.93;126825;1285;107588;-73
2022/10/27 13:01:59;;;;;;;7.90;5.90;;;;;;;16.72;81.33;101170.73;126899;1286;107391;-74
2022/10/27 13:05:30;;;;;;;9.70;5.90;;;;;;;16.76;81.72;101171.73;126980;1286;107914;-74
2022/10/27 13:09:10;;;;;;;6.40;5.60;;;;;;;16.80;80.70;101172.16;126962;1296;107622;-75
2022/10/27 13:12:38;;;;;;;6.80;5.60;;;;;;;16.81;81.03;101171.98;127154;1286;106157;-74
2022/10/27 13:15:53;;;;;;;7.70;5.90;;;;;;;16.80;80.86;101173.38;127028;1276;107572;-74
2022/10/27 13:19:15;;;;;;;7.90;5.80;;;;;;;16.79;81.23;101172.80;127052;1279;107447;-73
2022/10/27 13:22:29;;;;;;;7.70;5.70;;;;;;;16.74;79.89;101167.83;127027;1279;107495;-73
2022/10/27 13:25:40;;;;;;;9.40;6.50;;;;;;;16.72;79.29;101168.06;126901;1272;105754;-73
2022/10/27 13:28:52;;;;;;;9.40;6.50;;;;;;;16.73;80.21;101171.19;127051;1286;107439;-73
2022/10/27 13:32:17;;;;;;;12.00;7.80;;;;;;;16.75;80.18;101170.05;126986;1296;108076;-73
2022/10/27 13:35:30;;;;;;;13.40;7.90;;;;;;;16.75;79.87;101173.80;126993;1275;107336;-74
2022/10/27 13:38:36;;;;;;;10.70;7.80;;;;;;;16.73;79.88;101167.90;126950;1284;107526;-74
2022/10/27 13:42:06;;;;;;;11.00;7.80;;;;;;;16.70;79.67;101165.70;127189;1285;107495;-72
2022/10/27 13:45:42;;;;;;;10.70;9.40;;;;;;;16.68;79.97;101162.20;127290;1285;107250;-73
2022/10/27 13:48:51;;;;;;;17.00;13.20;;;;;;;16.67;79.73;101164.80;127200;1285;106534;-75
2022/10/27 13:52:18;;;;;;;20.80;15.50;;;;;;;16.67;80.20;101165.30;126983;1282;107386;-74
2022/10/27 13:55:34;;;;;;;20.60;13.90;;;;;;;16.67;80.12;101165.65;127170;1285;107580;-76
2022/10/27 13:58:55;;;;;;;10.30;7.80;;;;;;;16.64;79.94;101170.10;126928;1286;107153;-73
2022/10/27 14:02:04;;;;;;;9.00;6.80;;;;;;;16.59;79.73;101171.45;126970;1278;107566;-73
2022/10/27 14:05:21;;;;;;;47.70;40.40;;;;;;;16.51;80.08;101175.49;127051;1279;108648;-74
2022/10/27 14:08:29;;;;;;;66.60;47.30;;;;;;;16.42;80.28;101176.54;126979;1288;107620;-76